sensor_id;sensor_type;location;lat;lon;timestamp;P1;durP1;ratioP1;P2;durP2;ratioP2
19347;SDS011;9810;52.480;9.806;2023-04-01T00:01:09;1.73;;;1.00;;
19347;SDS011;9810;52.480;9.806;2023-04-01T00:03:40;4.53;;;1.00;;
19347;SDS011;9810;52.480;9.806;2023-04-01T00:06:08;4.03;;;1.00;;
19347;SDS011;9810;52.480;9.806;2023-04-01T00:08:36;3.03;;;0.70;;
19347;SDS011;9810;52.480;9.806;2023-04-01T00:11:04;3.97;;;1.30;;
19347;SDS011;9810;52.480;9.806;2023-04-01T00:13:31;2.83;;;0.93;;
19347;SDS011;9810;52.480;9.806;2023-04-01T00:15:59;3.03;;;0.80;;
19347;SDS011;9810;52.480;9.806;2023-04-01T00:18:26;4.87;;;1.90;;
19347;SDS011;9810;52.480;9.806;2023-04-01T00:20:55;0.90;;;0.80;;
19347;SDS011;9810;52.480;9.806;2023-04-01T00:23:23;3.30;;;1.30;;
19347;SDS011;9810;52.480;9.806;2023-04-01T00:25:50;4.37;;;1.73;;
19347;SDS011;9810;52.480;9.806;2023-04-01T00:28:18;3.73;;;1.10;;
19347;SDS011;9810;52.480;9.806;2023-04-01T00:30:46;5.53;;;1.10;;
19347;SDS011;9810;52.480;9.806;2023-04-01T00:33:14;4.73;;;1.20;;
19347;SDS011;9810;52.480;9.806;2023-04-01T00:35:43;4.90;;;1.20;;
19347;SDS011;9810;52.480;9.806;2023-04-01T00:38:13;5.43;;;1.33;;
19347;SDS011;9810;52.480;9.806;2023-04-01T00:40:42;3.83;;;1.20;;
19347;SDS011;9810;52.480;9.806;2023-04-01T00:43:13;4.43;;;1.17;;
19347;SDS011;9810;52.480;9.806;2023-04-01T00:45:44;5.83;;;1.43;;
19347;SDS011;9810;52.480;9.806;2023-04-01T00:48:13;3.53;;;1.10;;
19347;SDS011;9810;52.480;9.806;2023-04-01T00:50:44;5.23;;;1.47;;
19347;SDS011;9810;52.480;9.806;2023-04-01T00:53:17;1.80;;;0.90;;
19347;SDS011;9810;52.480;9.806;2023-04-01T00:55:49;6.40;;;1.20;;
19347;SDS011;9810;52.480;9.806;2023-04-01T00:58:21;2.33;;;1.03;;
19347;SDS011;9810;52.480;9.806;2023-04-01T01:00:49;5.53;;;1.70;;
19347;SDS011;9810;52.480;9.806;2023-04-01T01:03:18;6.13;;;1.50;;
19347;SDS011;9810;52.480;9.806;2023-04-01T01:05:50;6.67;;;1.07;;
19347;SDS011;9810;52.480;9.806;2023-04-01T01:08:35;4.63;;;1.27;;
19347;SDS011;9810;52.480;9.806;2023-04-01T01:11:13;3.60;;;1.10;;
19347;SDS011;9810;52.480;9.806;2023-04-01T01:13:46;3.77;;;0.87;;
19347;SDS011;9810;52.480;9.806;2023-04-01T01:16:24;2.80;;;0.80;;
19347;SDS011;9810;52.480;9.806;2023-04-01T01:18:55;1.00;;;0.70;;
19347;SDS011;9810;52.480;9.806;2023-04-01T01:21:42;3.90;;;1.17;;
19347;SDS011;9810;52.480;9.806;2023-04-01T01:24:32;2.00;;;0.80;;
19347;SDS011;9810;52.480;9.806;2023-04-01T01:27:20;2.97;;;1.00;;
19347;SDS011;9810;52.480;9.806;2023-04-01T01:33:06;3.20;;;0.70;;
19347;SDS011;9810;52.480;9.806;2023-04-01T01:35:48;3.23;;;0.80;;
19347;SDS011;9810;52.480;9.806;2023-04-01T01:38:19;3.07;;;1.03;;
19347;SDS011;9810;52.480;9.806;2023-04-01T01:40:49;1.23;;;0.83;;
19347;SDS011;9810;52.480;9.806;2023-04-01T01:43:21;1.43;;;0.67;;
19347;SDS011;9810;52.480;9.806;2023-04-01T01:45:51;1.57;;;0.60;;
19347;SDS011;9810;52.480;9.806;2023-04-01T01:48:21;4.50;;;0.63;;
19347;SDS011;9810;52.480;9.806;2023-04-01T01:50:51;1.47;;;0.50;;
19347;SDS011;9810;52.480;9.806;2023-04-01T01:53:20;3.60;;;0.60;;
19347;SDS011;9810;52.480;9.806;2023-04-01T01:55:47;0.43;;;0.43;;
19347;SDS011;9810;52.480;9.806;2023-04-01T01:58:16;1.40;;;0.80;;
19347;SDS011;9810;52.480;9.806;2023-04-01T02:00:47;3.27;;;0.90;;
19347;SDS011;9810;52.480;9.806;2023-04-01T02:03:17;1.43;;;0.60;;
19347;SDS011;9810;52.480;9.806;2023-04-01T02:05:47;3.10;;;0.60;;
19347;SDS011;9810;52.480;9.806;2023-04-01T02:08:20;2.07;;;0.63;;
19347;SDS011;9810;52.480;9.806;2023-04-01T02:10:53;2.90;;;0.73;;
19347;SDS011;9810;52.480;9.806;2023-04-01T02:13:27;3.93;;;1.03;;
19347;SDS011;9810;52.480;9.806;2023-04-01T02:15:59;3.00;;;0.90;;
19347;SDS011;9810;52.480;9.806;2023-04-01T02:18:29;4.53;;;0.63;;
19347;SDS011;9810;52.480;9.806;2023-04-01T02:21:01;3.10;;;0.97;;
19347;SDS011;9810;52.480;9.806;2023-04-01T02:23:31;3.93;;;0.73;;
19347;SDS011;9810;52.480;9.806;2023-04-01T02:26:02;3.17;;;0.57;;
19347;SDS011;9810;52.480;9.806;2023-04-01T02:28:32;1.13;;;0.50;;
19347;SDS011;9810;52.480;9.806;2023-04-01T02:31:00;2.37;;;0.70;;
19347;SDS011;9810;52.480;9.806;2023-04-01T02:33:29;1.27;;;0.50;;
19347;SDS011;9810;52.480;9.806;2023-04-01T02:35:57;2.13;;;0.47;;
19347;SDS011;9810;52.480;9.806;2023-04-01T02:38:26;1.13;;;0.53;;
19347;SDS011;9810;52.480;9.806;2023-04-01T02:40:56;4.47;;;0.50;;
19347;SDS011;9810;52.480;9.806;2023-04-01T02:43:25;3.50;;;0.60;;
19347;SDS011;9810;52.480;9.806;2023-04-01T02:45:53;4.50;;;0.90;;
19347;SDS011;9810;52.480;9.806;2023-04-01T02:48:20;4.23;;;1.00;;
19347;SDS011;9810;52.480;9.806;2023-04-01T02:50:48;1.20;;;0.60;;
19347;SDS011;9810;52.480;9.806;2023-04-01T02:53:16;2.77;;;0.93;;
19347;SDS011;9810;52.480;9.806;2023-04-01T02:55:45;4.03;;;0.70;;
19347;SDS011;9810;52.480;9.806;2023-04-01T02:58:15;1.20;;;0.70;;
19347;SDS011;9810;52.480;9.806;2023-04-01T03:00:43;5.73;;;1.23;;
19347;SDS011;9810;52.480;9.806;2023-04-01T03:03:10;3.60;;;1.03;;
19347;SDS011;9810;52.480;9.806;2023-04-01T03:05:38;1.07;;;0.77;;
19347;SDS011;9810;52.480;9.806;2023-04-01T03:08:06;0.80;;;0.70;;
19347;SDS011;9810;52.480;9.806;2023-04-01T03:10:33;4.43;;;1.00;;
19347;SDS011;9810;52.480;9.806;2023-04-01T03:13:02;0.97;;;0.57;;
19347;SDS011;9810;52.480;9.806;2023-04-01T03:15:29;0.60;;;0.60;;
19347;SDS011;9810;52.480;9.806;2023-04-01T03:17:57;1.47;;;0.77;;
19347;SDS011;9810;52.480;9.806;2023-04-01T03:20:24;3.00;;;1.57;;
19347;SDS011;9810;52.480;9.806;2023-04-01T03:22:51;8.63;;;1.40;;
19347;SDS011;9810;52.480;9.806;2023-04-01T03:25:19;2.43;;;0.90;;
19347;SDS011;9810;52.480;9.806;2023-04-01T03:27:46;1.67;;;0.57;;
19347;SDS011;9810;52.480;9.806;2023-04-01T03:30:15;1.07;;;0.50;;
19347;SDS011;9810;52.480;9.806;2023-04-01T03:32:42;2.20;;;0.70;;
19347;SDS011;9810;52.480;9.806;2023-04-01T03:35:09;4.40;;;0.50;;
19347;SDS011;9810;52.480;9.806;2023-04-01T03:37:37;3.77;;;0.90;;
19347;SDS011;9810;52.480;9.806;2023-04-01T03:40:05;2.63;;;0.50;;
19347;SDS011;9810;52.480;9.806;2023-04-01T03:42:32;2.87;;;0.60;;
19347;SDS011;9810;52.480;9.806;2023-04-01T03:45:00;4.03;;;0.60;;
19347;SDS011;9810;52.480;9.806;2023-04-01T03:47:29;0.57;;;0.50;;
19347;SDS011;9810;52.480;9.806;2023-04-01T03:49:56;4.63;;;1.10;;
19347;SDS011;9810;52.480;9.806;2023-04-01T03:52:24;2.23;;;0.80;;
19347;SDS011;9810;52.480;9.806;2023-04-01T03:54:51;2.27;;;0.73;;
19347;SDS011;9810;52.480;9.806;2023-04-01T03:57:18;4.40;;;0.60;;
19347;SDS011;9810;52.480;9.806;2023-04-01T03:59:45;0.40;;;0.40;;
19347;SDS011;9810;52.480;9.806;2023-04-01T04:02:13;7.83;;;0.80;;
19347;SDS011;9810;52.480;9.806;2023-04-01T04:04:42;4.17;;;0.67;;
19347;SDS011;9810;52.480;9.806;2023-04-01T04:07:09;6.17;;;2.03;;
19347;SDS011;9810;52.480;9.806;2023-04-01T04:09:37;1.50;;;0.57;;
19347;SDS011;9810;52.480;9.806;2023-04-01T04:12:04;0.90;;;0.67;;
19347;SDS011;9810;52.480;9.806;2023-04-01T04:14:32;1.30;;;0.47;;
19347;SDS011;9810;52.480;9.806;2023-04-01T04:17:00;3.57;;;0.70;;
19347;SDS011;9810;52.480;9.806;2023-04-01T04:19:31;4.10;;;0.73;;
19347;SDS011;9810;52.480;9.806;2023-04-01T04:22:01;2.43;;;0.90;;
19347;SDS011;9810;52.480;9.806;2023-04-01T04:24:28;2.27;;;0.80;;
19347;SDS011;9810;52.480;9.806;2023-04-01T04:26:55;3.80;;;1.03;;
19347;SDS011;9810;52.480;9.806;2023-04-01T04:29:23;6.93;;;1.97;;
19347;SDS011;9810;52.480;9.806;2023-04-01T04:31:50;6.83;;;2.20;;
19347;SDS011;9810;52.480;9.806;2023-04-01T04:34:17;7.07;;;3.80;;
19347;SDS011;9810;52.480;9.806;2023-04-01T04:36:46;3.27;;;1.40;;
19347;SDS011;9810;52.480;9.806;2023-04-01T04:39:15;4.63;;;1.97;;
19347;SDS011;9810;52.480;9.806;2023-04-01T04:41:43;3.87;;;1.17;;
19347;SDS011;9810;52.480;9.806;2023-04-01T04:44:10;2.37;;;1.40;;
19347;SDS011;9810;52.480;9.806;2023-04-01T04:46:37;6.33;;;1.53;;
19347;SDS011;9810;52.480;9.806;2023-04-01T04:49:05;4.63;;;1.30;;
19347;SDS011;9810;52.480;9.806;2023-04-01T04:51:32;4.13;;;1.10;;
19347;SDS011;9810;52.480;9.806;2023-04-01T04:54:00;3.97;;;1.57;;
19347;SDS011;9810;52.480;9.806;2023-04-01T04:56:30;6.50;;;2.97;;
19347;SDS011;9810;52.480;9.806;2023-04-01T04:58:57;3.03;;;1.00;;
19347;SDS011;9810;52.480;9.806;2023-04-01T05:01:25;5.37;;;1.43;;
19347;SDS011;9810;52.480;9.806;2023-04-01T05:03:52;2.80;;;0.97;;
19347;SDS011;9810;52.480;9.806;2023-04-01T05:06:19;6.43;;;1.10;;
19347;SDS011;9810;52.480;9.806;2023-04-01T05:08:47;4.53;;;1.17;;
19347;SDS011;9810;52.480;9.806;2023-04-01T05:11:16;2.57;;;1.03;;
19347;SDS011;9810;52.480;9.806;2023-04-01T05:13:46;3.63;;;1.43;;
19347;SDS011;9810;52.480;9.806;2023-04-01T05:16:15;5.87;;;1.20;;
19347;SDS011;9810;52.480;9.806;2023-04-01T05:18:44;6.03;;;1.53;;
19347;SDS011;9810;52.480;9.806;2023-04-01T05:21:13;4.30;;;1.50;;
19347;SDS011;9810;52.480;9.806;2023-04-01T05:23:41;5.70;;;3.33;;
19347;SDS011;9810;52.480;9.806;2023-04-01T05:26:10;5.13;;;3.10;;
19347;SDS011;9810;52.480;9.806;2023-04-01T05:28:38;8.37;;;3.50;;
19347;SDS011;9810;52.480;9.806;2023-04-01T05:31:08;2.30;;;1.20;;
19347;SDS011;9810;52.480;9.806;2023-04-01T05:33:35;2.63;;;1.10;;
19347;SDS011;9810;52.480;9.806;2023-04-01T05:36:06;3.37;;;0.73;;
19347;SDS011;9810;52.480;9.806;2023-04-01T05:38:35;3.17;;;0.90;;
19347;SDS011;9810;52.480;9.806;2023-04-01T05:41:02;5.53;;;0.93;;
19347;SDS011;9810;52.480;9.806;2023-04-01T05:43:30;1.50;;;0.80;;
19347;SDS011;9810;52.480;9.806;2023-04-01T05:45:57;2.80;;;1.00;;
19347;SDS011;9810;52.480;9.806;2023-04-01T05:48:26;2.13;;;0.83;;
19347;SDS011;9810;52.480;9.806;2023-04-01T05:50:54;4.77;;;1.40;;
19347;SDS011;9810;52.480;9.806;2023-04-01T05:53:21;5.63;;;1.20;;
19347;SDS011;9810;52.480;9.806;2023-04-01T05:55:50;3.07;;;0.80;;
19347;SDS011;9810;52.480;9.806;2023-04-01T05:58:17;2.30;;;1.40;;
19347;SDS011;9810;52.480;9.806;2023-04-01T06:00:44;7.17;;;1.10;;
19347;SDS011;9810;52.480;9.806;2023-04-01T06:03:12;5.10;;;1.17;;
19347;SDS011;9810;52.480;9.806;2023-04-01T06:05:41;2.50;;;0.90;;
19347;SDS011;9810;52.480;9.806;2023-04-01T06:08:10;5.30;;;1.50;;
19347;SDS011;9810;52.480;9.806;2023-04-01T06:10:47;5.47;;;1.03;;
19347;SDS011;9810;52.480;9.806;2023-04-01T06:13:24;2.80;;;0.87;;
19347;SDS011;9810;52.480;9.806;2023-04-01T06:16:04;3.67;;;1.00;;
19347;SDS011;9810;52.480;9.806;2023-04-01T06:18:48;4.73;;;1.13;;
19347;SDS011;9810;52.480;9.806;2023-04-01T06:21:32;3.67;;;1.00;;
19347;SDS011;9810;52.480;9.806;2023-04-01T06:24:22;1.63;;;0.90;;
19347;SDS011;9810;52.480;9.806;2023-04-01T06:26:59;5.80;;;1.70;;
19347;SDS011;9810;52.480;9.806;2023-04-01T06:29:47;1.97;;;0.93;;
19347;SDS011;9810;52.480;9.806;2023-04-01T06:32:28;3.33;;;1.10;;
19347;SDS011;9810;52.480;9.806;2023-04-01T06:35:15;5.43;;;1.03;;
19347;SDS011;9810;52.480;9.806;2023-04-01T06:41:00;4.53;;;1.20;;
19347;SDS011;9810;52.480;9.806;2023-04-01T06:43:46;4.40;;;1.47;;
19347;SDS011;9810;52.480;9.806;2023-04-01T06:46:24;4.77;;;1.30;;
19347;SDS011;9810;52.480;9.806;2023-04-01T06:49:07;3.17;;;1.20;;
19347;SDS011;9810;52.480;9.806;2023-04-01T06:51:49;3.43;;;1.67;;
19347;SDS011;9810;52.480;9.806;2023-04-01T06:54:23;4.73;;;1.30;;
19347;SDS011;9810;52.480;9.806;2023-04-01T06:56:58;6.83;;;1.33;;
19347;SDS011;9810;52.480;9.806;2023-04-01T06:59:31;5.10;;;1.50;;
19347;SDS011;9810;52.480;9.806;2023-04-01T07:02:01;4.10;;;1.57;;
19347;SDS011;9810;52.480;9.806;2023-04-01T07:04:37;3.30;;;1.50;;
19347;SDS011;9810;52.480;9.806;2023-04-01T07:07:08;2.60;;;1.13;;
19347;SDS011;9810;52.480;9.806;2023-04-01T07:09:47;3.13;;;1.37;;
19347;SDS011;9810;52.480;9.806;2023-04-01T07:12:19;1.33;;;1.00;;
19347;SDS011;9810;52.480;9.806;2023-04-01T07:14:53;3.63;;;1.20;;
19347;SDS011;9810;52.480;9.806;2023-04-01T07:17:22;2.73;;;1.20;;
19347;SDS011;9810;52.480;9.806;2023-04-01T07:19:56;4.33;;;0.93;;
19347;SDS011;9810;52.480;9.806;2023-04-01T07:22:29;2.77;;;0.87;;
19347;SDS011;9810;52.480;9.806;2023-04-01T07:25:02;3.37;;;1.30;;
19347;SDS011;9810;52.480;9.806;2023-04-01T07:27:37;3.10;;;1.20;;
19347;SDS011;9810;52.480;9.806;2023-04-01T07:30:06;5.57;;;1.30;;
19347;SDS011;9810;52.480;9.806;2023-04-01T07:32:41;1.30;;;0.70;;
19347;SDS011;9810;52.480;9.806;2023-04-01T07:35:16;2.67;;;0.70;;
19347;SDS011;9810;52.480;9.806;2023-04-01T07:37:53;1.60;;;0.57;;
19347;SDS011;9810;52.480;9.806;2023-04-01T07:40:35;4.13;;;0.70;;
19347;SDS011;9810;52.480;9.806;2023-04-01T07:43:16;2.27;;;0.60;;
19347;SDS011;9810;52.480;9.806;2023-04-01T07:45:53;4.33;;;0.80;;
19347;SDS011;9810;52.480;9.806;2023-04-01T07:48:30;0.93;;;0.53;;
19347;SDS011;9810;52.480;9.806;2023-04-01T07:51:06;3.37;;;0.70;;
19347;SDS011;9810;52.480;9.806;2023-04-01T07:53:38;2.67;;;1.17;;
19347;SDS011;9810;52.480;9.806;2023-04-01T07:56:15;1.07;;;0.63;;
19347;SDS011;9810;52.480;9.806;2023-04-01T07:58:52;4.33;;;0.87;;
19347;SDS011;9810;52.480;9.806;2023-04-01T08:01:30;3.23;;;0.70;;
19347;SDS011;9810;52.480;9.806;2023-04-01T08:04:12;0.60;;;0.60;;
19347;SDS011;9810;52.480;9.806;2023-04-01T08:06:56;0.90;;;0.50;;
19347;SDS011;9810;52.480;9.806;2023-04-01T08:09:34;0.50;;;0.50;;
19347;SDS011;9810;52.480;9.806;2023-04-01T08:12:13;3.20;;;0.87;;
19347;SDS011;9810;52.480;9.806;2023-04-01T08:14:51;1.05;;;0.60;;
19347;SDS011;9810;52.480;9.806;2023-04-01T08:17:28;1.10;;;0.47;;
19347;SDS011;9810;52.480;9.806;2023-04-01T08:20:07;0.77;;;0.40;;
19347;SDS011;9810;52.480;9.806;2023-04-01T08:22:45;1.90;;;0.40;;
19347;SDS011;9810;52.480;9.806;2023-04-01T08:25:16;2.17;;;0.60;;
19347;SDS011;9810;52.480;9.806;2023-04-01T08:27:48;4.35;;;0.50;;
19347;SDS011;9810;52.480;9.806;2023-04-01T08:30:21;1.10;;;0.40;;
19347;SDS011;9810;52.480;9.806;2023-04-01T08:32:51;0.80;;;0.38;;
19347;SDS011;9810;52.480;9.806;2023-04-01T08:35:26;0.20;;;0.20;;
19347;SDS011;9810;52.480;9.806;2023-04-01T08:37:56;2.20;;;0.30;;
19347;SDS011;9810;52.480;9.806;2023-04-01T08:40:41;1.30;;;0.73;;
19347;SDS011;9810;52.480;9.806;2023-04-01T08:43:35;3.03;;;0.47;;
19347;SDS011;9810;52.480;9.806;2023-04-01T08:46:29;0.73;;;0.30;;
19347;SDS011;9810;52.480;9.806;2023-04-01T08:52:15;1.55;;;0.85;;
19347;SDS011;9810;52.480;9.806;2023-04-01T08:54:57;2.70;;;0.55;;
19347;SDS011;9810;52.480;9.806;2023-04-01T08:57:44;6.35;;;0.90;;
19347;SDS011;9810;52.480;9.806;2023-04-01T09:00:21;3.30;;;1.13;;
19347;SDS011;9810;52.480;9.806;2023-04-01T09:03:09;3.50;;;1.63;;
19347;SDS011;9810;52.480;9.806;2023-04-01T09:06:05;7.13;;;1.92;;
19347;SDS011;9810;52.480;9.806;2023-04-01T09:08:57;5.50;;;2.08;;
19347;SDS011;9810;52.480;9.806;2023-04-01T09:11:53;3.50;;;1.65;;
19347;SDS011;9810;52.480;9.806;2023-04-01T09:14:38;6.45;;;2.97;;
19347;SDS011;9810;52.480;9.806;2023-04-01T09:20:29;11.03;;;3.63;;
19347;SDS011;9810;52.480;9.806;2023-04-01T09:23:24;8.07;;;2.93;;
19347;SDS011;9810;52.480;9.806;2023-04-01T09:26:07;3.20;;;1.37;;
19347;SDS011;9810;52.480;9.806;2023-04-01T09:28:52;4.47;;;1.70;;
19347;SDS011;9810;52.480;9.806;2023-04-01T09:34:42;5.77;;;3.10;;
19347;SDS011;9810;52.480;9.806;2023-04-01T09:37:20;6.47;;;3.00;;
19347;SDS011;9810;52.480;9.806;2023-04-01T09:40:02;5.00;;;1.93;;
19347;SDS011;9810;52.480;9.806;2023-04-01T09:42:44;4.07;;;1.57;;
19347;SDS011;9810;52.480;9.806;2023-04-01T09:45:19;2.57;;;1.20;;
19347;SDS011;9810;52.480;9.806;2023-04-01T09:48:02;3.00;;;2.07;;
19347;SDS011;9810;52.480;9.806;2023-04-01T09:50:45;7.50;;;5.20;;
19347;SDS011;9810;52.480;9.806;2023-04-01T09:53:28;8.67;;;4.77;;
19347;SDS011;9810;52.480;9.806;2023-04-01T09:56:27;5.73;;;3.07;;
19347;SDS011;9810;52.480;9.806;2023-04-01T10:02:27;8.77;;;5.93;;
19347;SDS011;9810;52.480;9.806;2023-04-01T10:05:18;8.90;;;5.27;;
19347;SDS011;9810;52.480;9.806;2023-04-01T10:08:09;7.93;;;4.53;;
19347;SDS011;9810;52.480;9.806;2023-04-01T10:10:55;5.87;;;3.83;;
19347;SDS011;9810;52.480;9.806;2023-04-01T10:13:56;4.40;;;3.10;;
19347;SDS011;9810;52.480;9.806;2023-04-01T10:16:59;3.87;;;2.50;;
19347;SDS011;9810;52.480;9.806;2023-04-01T10:19:43;1.30;;;0.60;;
19347;SDS011;9810;52.480;9.806;2023-04-01T10:25:32;2.17;;;0.93;;
19347;SDS011;9810;52.480;9.806;2023-04-01T10:28:29;3.00;;;1.30;;
19347;SDS011;9810;52.480;9.806;2023-04-01T10:34:23;5.63;;;2.00;;
19347;SDS011;9810;52.480;9.806;2023-04-01T10:37:28;4.43;;;1.90;;
19347;SDS011;9810;52.480;9.806;2023-04-01T10:40:21;4.13;;;2.57;;
19347;SDS011;9810;52.480;9.806;2023-04-01T10:43:43;3.73;;;2.57;;
19347;SDS011;9810;52.480;9.806;2023-04-01T10:49:41;2.03;;;1.60;;
19347;SDS011;9810;52.480;9.806;2023-04-01T10:58:35;1.53;;;0.97;;
19347;SDS011;9810;52.480;9.806;2023-04-01T11:01:42;0.50;;;0.43;;
19347;SDS011;9810;52.480;9.806;2023-04-01T11:20:33;2.30;;;1.17;;
19347;SDS011;9810;52.480;9.806;2023-04-01T11:23:34;3.60;;;2.00;;
19347;SDS011;9810;52.480;9.806;2023-04-01T11:26:12;6.17;;;2.40;;
19347;SDS011;9810;52.480;9.806;2023-04-01T11:29:08;4.10;;;1.43;;
19347;SDS011;9810;52.480;9.806;2023-04-01T11:31:58;6.37;;;2.77;;
19347;SDS011;9810;52.480;9.806;2023-04-01T11:34:43;4.07;;;2.03;;
19347;SDS011;9810;52.480;9.806;2023-04-01T11:37:35;5.23;;;1.87;;
19347;SDS011;9810;52.480;9.806;2023-04-01T11:40:14;3.23;;;1.60;;
19347;SDS011;9810;52.480;9.806;2023-04-01T11:42:51;2.53;;;1.13;;
19347;SDS011;9810;52.480;9.806;2023-04-01T11:45:26;2.20;;;1.10;;
19347;SDS011;9810;52.480;9.806;2023-04-01T11:48:09;2.80;;;0.87;;
19347;SDS011;9810;52.480;9.806;2023-04-01T11:50:58;2.83;;;0.83;;
19347;SDS011;9810;52.480;9.806;2023-04-01T11:53:44;0.70;;;0.57;;
19347;SDS011;9810;52.480;9.806;2023-04-01T11:56:24;3.40;;;1.30;;
19347;SDS011;9810;52.480;9.806;2023-04-01T11:59:22;2.73;;;1.60;;
19347;SDS011;9810;52.480;9.806;2023-04-01T12:02:08;4.43;;;1.50;;
19347;SDS011;9810;52.480;9.806;2023-04-01T12:04:51;4.70;;;2.70;;
19347;SDS011;9810;52.480;9.806;2023-04-01T12:07:49;2.50;;;1.73;;
19347;SDS011;9810;52.480;9.806;2023-04-01T12:10:25;3.53;;;2.13;;
19347;SDS011;9810;52.480;9.806;2023-04-01T12:13:01;2.40;;;1.67;;
19347;SDS011;9810;52.480;9.806;2023-04-01T12:15:36;3.40;;;1.70;;
19347;SDS011;9810;52.480;9.806;2023-04-01T12:18:20;1.73;;;1.20;;
19347;SDS011;9810;52.480;9.806;2023-04-01T12:20:56;4.37;;;1.30;;
19347;SDS011;9810;52.480;9.806;2023-04-01T12:23:33;3.17;;;1.10;;
19347;SDS011;9810;52.480;9.806;2023-04-01T12:26:38;0.97;;;0.77;;
19347;SDS011;9810;52.480;9.806;2023-04-01T12:29:33;2.53;;;1.33;;
19347;SDS011;9810;52.480;9.806;2023-04-01T12:32:14;1.80;;;1.30;;
19347;SDS011;9810;52.480;9.806;2023-04-01T12:34:57;1.20;;;0.50;;
19347;SDS011;9810;52.480;9.806;2023-04-01T12:37:47;3.03;;;0.80;;
19347;SDS011;9810;52.480;9.806;2023-04-01T12:43:21;7.00;;;6.40;;
19347;SDS011;9810;52.480;9.806;2023-04-01T12:46:09;6.00;;;2.93;;
19347;SDS011;9810;52.480;9.806;2023-04-01T12:48:55;1.57;;;0.60;;
19347;SDS011;9810;52.480;9.806;2023-04-01T12:51:48;3.70;;;0.60;;
19347;SDS011;9810;52.480;9.806;2023-04-01T13:01:25;0.50;;;0.40;;
19347;SDS011;9810;52.480;9.806;2023-04-01T13:07:13;0.67;;;0.60;;
19347;SDS011;9810;52.480;9.806;2023-04-01T13:09:51;0.60;;;0.60;;
19347;SDS011;9810;52.480;9.806;2023-04-01T13:12:42;1.43;;;0.73;;
19347;SDS011;9810;52.480;9.806;2023-04-01T13:15:24;2.50;;;1.40;;
19347;SDS011;9810;52.480;9.806;2023-04-01T13:17:58;0.63;;;0.63;;
19347;SDS011;9810;52.480;9.806;2023-04-01T13:20:36;0.80;;;0.80;;
19347;SDS011;9810;52.480;9.806;2023-04-01T13:23:14;0.60;;;0.60;;
19347;SDS011;9810;52.480;9.806;2023-04-01T13:25:51;0.70;;;0.50;;
19347;SDS011;9810;52.480;9.806;2023-04-01T13:28:29;0.60;;;0.60;;
19347;SDS011;9810;52.480;9.806;2023-04-01T13:31:02;0.90;;;0.50;;
19347;SDS011;9810;52.480;9.806;2023-04-01T13:33:37;0.70;;;0.70;;
19347;SDS011;9810;52.480;9.806;2023-04-01T13:36:14;0.67;;;0.50;;
19347;SDS011;9810;52.480;9.806;2023-04-01T13:41:52;1.07;;;0.80;;
19347;SDS011;9810;52.480;9.806;2023-04-01T13:44:29;2.53;;;0.63;;
19347;SDS011;9810;52.480;9.806;2023-04-01T13:50:17;0.50;;;0.50;;
19347;SDS011;9810;52.480;9.806;2023-04-01T13:53:27;0.70;;;0.60;;
19347;SDS011;9810;52.480;9.806;2023-04-01T13:56:24;1.00;;;0.70;;
19347;SDS011;9810;52.480;9.806;2023-04-01T14:02:01;0.50;;;0.50;;
19347;SDS011;9810;52.480;9.806;2023-04-01T14:04:49;0.97;;;0.60;;
19347;SDS011;9810;52.480;9.806;2023-04-01T14:07:33;0.77;;;0.60;;
19347;SDS011;9810;52.480;9.806;2023-04-01T14:10:17;0.53;;;0.50;;
19347;SDS011;9810;52.480;9.806;2023-04-01T14:12:54;1.70;;;0.60;;
19347;SDS011;9810;52.480;9.806;2023-04-01T14:15:31;0.47;;;0.47;;
19347;SDS011;9810;52.480;9.806;2023-04-01T14:18:39;1.37;;;0.90;;
19347;SDS011;9810;52.480;9.806;2023-04-01T14:21:26;0.40;;;0.40;;
19347;SDS011;9810;52.480;9.806;2023-04-01T14:30:00;0.60;;;0.60;;
19347;SDS011;9810;52.480;9.806;2023-04-01T14:32:45;0.50;;;0.50;;
19347;SDS011;9810;52.480;9.806;2023-04-01T14:35:24;0.90;;;0.90;;
19347;SDS011;9810;52.480;9.806;2023-04-01T14:38:02;2.87;;;1.20;;
19347;SDS011;9810;52.480;9.806;2023-04-01T14:40:40;3.50;;;2.33;;
19347;SDS011;9810;52.480;9.806;2023-04-01T14:43:22;0.50;;;0.50;;
19347;SDS011;9810;52.480;9.806;2023-04-01T14:46:11;0.83;;;0.83;;
19347;SDS011;9810;52.480;9.806;2023-04-01T14:48:49;0.60;;;0.50;;
19347;SDS011;9810;52.480;9.806;2023-04-01T14:51:21;0.47;;;0.47;;
19347;SDS011;9810;52.480;9.806;2023-04-01T14:53:59;0.83;;;0.63;;
19347;SDS011;9810;52.480;9.806;2023-04-01T14:56:38;0.57;;;0.57;;
19347;SDS011;9810;52.480;9.806;2023-04-01T14:59:08;0.50;;;0.50;;
19347;SDS011;9810;52.480;9.806;2023-04-01T15:01:43;0.57;;;0.50;;
19347;SDS011;9810;52.480;9.806;2023-04-01T15:04:26;1.67;;;1.40;;
19347;SDS011;9810;52.480;9.806;2023-04-01T15:10:32;0.80;;;0.80;;
19347;SDS011;9810;52.480;9.806;2023-04-01T15:13:24;0.63;;;0.63;;
19347;SDS011;9810;52.480;9.806;2023-04-01T15:16:13;0.50;;;0.50;;
19347;SDS011;9810;52.480;9.806;2023-04-01T15:18:53;0.40;;;0.40;;
19347;SDS011;9810;52.480;9.806;2023-04-01T15:21:33;0.63;;;0.60;;
19347;SDS011;9810;52.480;9.806;2023-04-01T15:24:12;0.40;;;0.40;;
19347;SDS011;9810;52.480;9.806;2023-04-01T15:27:10;0.40;;;0.40;;
19347;SDS011;9810;52.480;9.806;2023-04-01T15:32:55;0.80;;;0.47;;
19347;SDS011;9810;52.480;9.806;2023-04-01T15:35:37;2.73;;;1.73;;
19347;SDS011;9810;52.480;9.806;2023-04-01T15:38:14;1.67;;;0.50;;
19347;SDS011;9810;52.480;9.806;2023-04-01T15:40:53;0.93;;;0.50;;
19347;SDS011;9810;52.480;9.806;2023-04-01T15:43:31;0.60;;;0.50;;
19347;SDS011;9810;52.480;9.806;2023-04-01T15:49:09;0.50;;;0.50;;
19347;SDS011;9810;52.480;9.806;2023-04-01T15:51:58;0.50;;;0.50;;
19347;SDS011;9810;52.480;9.806;2023-04-01T15:54:38;0.53;;;0.40;;
19347;SDS011;9810;52.480;9.806;2023-04-01T15:57:37;0.50;;;0.50;;
19347;SDS011;9810;52.480;9.806;2023-04-01T16:00:22;0.77;;;0.53;;
19347;SDS011;9810;52.480;9.806;2023-04-01T16:03:02;0.50;;;0.43;;
19347;SDS011;9810;52.480;9.806;2023-04-01T16:05:43;3.53;;;0.60;;
19347;SDS011;9810;52.480;9.806;2023-04-01T16:11:19;1.20;;;1.10;;
19347;SDS011;9810;52.480;9.806;2023-04-01T16:13:54;1.80;;;0.67;;
19347;SDS011;9810;52.480;9.806;2023-04-01T16:16:38;1.27;;;0.70;;
19347;SDS011;9810;52.480;9.806;2023-04-01T16:22:13;1.33;;;0.50;;
19347;SDS011;9810;52.480;9.806;2023-04-01T16:24:48;0.73;;;0.53;;
19347;SDS011;9810;52.480;9.806;2023-04-01T16:27:24;0.77;;;0.77;;
19347;SDS011;9810;52.480;9.806;2023-04-01T16:29:56;0.80;;;0.80;;
19347;SDS011;9810;52.480;9.806;2023-04-01T16:32:31;2.10;;;0.73;;
19347;SDS011;9810;52.480;9.806;2023-04-01T16:37:55;0.83;;;0.80;;
19347;SDS011;9810;52.480;9.806;2023-04-01T16:40:35;0.90;;;0.90;;
19347;SDS011;9810;52.480;9.806;2023-04-01T16:43:13;0.90;;;0.90;;
19347;SDS011;9810;52.480;9.806;2023-04-01T16:45:53;1.30;;;0.80;;
19347;SDS011;9810;52.480;9.806;2023-04-01T16:48:34;0.68;;;0.68;;
19347;SDS011;9810;52.480;9.806;2023-04-01T16:51:13;1.87;;;1.07;;
19347;SDS011;9810;52.480;9.806;2023-04-01T16:53:43;1.27;;;0.80;;
19347;SDS011;9810;52.480;9.806;2023-04-01T16:56:16;3.10;;;1.53;;
19347;SDS011;9810;52.480;9.806;2023-04-01T16:58:56;3.30;;;1.50;;
19347;SDS011;9810;52.480;9.806;2023-04-01T17:01:29;3.80;;;2.40;;
19347;SDS011;9810;52.480;9.806;2023-04-01T17:03:58;4.50;;;1.80;;
19347;SDS011;9810;52.480;9.806;2023-04-01T17:06:35;2.53;;;1.10;;
19347;SDS011;9810;52.480;9.806;2023-04-01T17:09:12;0.70;;;0.70;;
19347;SDS011;9810;52.480;9.806;2023-04-01T17:11:55;1.77;;;1.33;;
19347;SDS011;9810;52.480;9.806;2023-04-01T17:14:28;1.57;;;1.00;;
19347;SDS011;9810;52.480;9.806;2023-04-01T17:17:08;3.63;;;1.60;;
19347;SDS011;9810;52.480;9.806;2023-04-01T17:19:49;1.10;;;0.70;;
19347;SDS011;9810;52.480;9.806;2023-04-01T17:22:31;2.10;;;1.70;;
19347;SDS011;9810;52.480;9.806;2023-04-01T17:25:09;1.30;;;1.20;;
19347;SDS011;9810;52.480;9.806;2023-04-01T17:28:08;1.37;;;0.90;;
19347;SDS011;9810;52.480;9.806;2023-04-01T17:30:47;1.27;;;1.17;;
19347;SDS011;9810;52.480;9.806;2023-04-01T17:33:24;1.40;;;0.90;;
19347;SDS011;9810;52.480;9.806;2023-04-01T17:36:21;1.20;;;1.07;;